sensor_id;sensor_type;location;lat;lon;timestamp;P1;durP1;ratioP1;P2;durP2;ratioP2
73428;SDS011;61643;49.564;17.412;2023-05-21T00:01:51;31.77;;;16.50;;
73428;SDS011;61643;49.564;17.412;2023-05-21T00:04:18;33.03;;;17.30;;
73428;SDS011;61643;49.564;17.412;2023-05-21T00:06:44;34.88;;;18.35;;
73428;SDS011;61643;49.564;17.412;2023-05-21T00:09:10;32.75;;;18.77;;
73428;SDS011;61643;49.564;17.412;2023-05-21T00:11:37;33.85;;;19.15;;
73428;SDS011;61643;49.564;17.412;2023-05-21T00:14:03;33.78;;;18.23;;
73428;SDS011;61643;49.564;17.412;2023-05-21T00:16:29;36.00;;;19.67;;
73428;SDS011;61643;49.564;17.412;2023-05-21T00:18:55;38.65;;;21.27;;
73428;SDS011;61643;49.564;17.412;2023-05-21T00:21:22;35.55;;;19.65;;
73428;SDS011;61643;49.564;17.412;2023-05-21T00:23:51;37.20;;;19.38;;
73428;SDS011;61643;49.564;17.412;2023-05-21T00:26:21;36.15;;;19.30;;
73428;SDS011;61643;49.564;17.412;2023-05-21T00:28:50;38.40;;;20.38;;
73428;SDS011;61643;49.564;17.412;2023-05-21T00:31:16;37.75;;;19.80;;
73428;SDS011;61643;49.564;17.412;2023-05-21T00:33:43;35.45;;;19.42;;
73428;SDS011;61643;49.564;17.412;2023-05-21T00:36:09;37.30;;;18.42;;
73428;SDS011;61643;49.564;17.412;2023-05-21T00:38:42;34.53;;;19.15;;
73428;SDS011;61643;49.564;17.412;2023-05-21T00:41:08;34.95;;;18.20;;
73428;SDS011;61643;49.564;17.412;2023-05-21T00:43:35;31.45;;;17.40;;
73428;SDS011;61643;49.564;17.412;2023-05-21T00:46:14;32.10;;;18.20;;
73428;SDS011;61643;49.564;17.412;2023-05-21T00:48:44;32.33;;;17.65;;
73428;SDS011;61643;49.564;17.412;2023-05-21T00:51:14;28.15;;;17.13;;
73428;SDS011;61643;49.564;17.412;2023-05-21T00:53:43;30.67;;;18.42;;
73428;SDS011;61643;49.564;17.412;2023-05-21T00:56:09;31.23;;;17.23;;
73428;SDS011;61643;49.564;17.412;2023-05-21T00:58:35;33.55;;;18.08;;
73428;SDS011;61643;49.564;17.412;2023-05-21T01:03:31;26.30;;;16.27;;
73428;SDS011;61643;49.564;17.412;2023-05-21T01:06:06;30.00;;;17.15;;
73428;SDS011;61643;49.564;17.412;2023-05-21T01:08:33;33.47;;;17.15;;
73428;SDS011;61643;49.564;17.412;2023-05-21T01:11:02;29.80;;;14.98;;
73428;SDS011;61643;49.564;17.412;2023-05-21T01:13:30;26.50;;;15.80;;
73428;SDS011;61643;49.564;17.412;2023-05-21T01:15:57;27.90;;;16.77;;
73428;SDS011;61643;49.564;17.412;2023-05-21T01:18:24;29.15;;;15.88;;
73428;SDS011;61643;49.564;17.412;2023-05-21T01:20:51;29.17;;;15.80;;
73428;SDS011;61643;49.564;17.412;2023-05-21T01:23:18;28.30;;;16.33;;
73428;SDS011;61643;49.564;17.412;2023-05-21T01:25:45;27.73;;;16.65;;
73428;SDS011;61643;49.564;17.412;2023-05-21T01:28:12;27.90;;;16.25;;
73428;SDS011;61643;49.564;17.412;2023-05-21T01:30:39;26.05;;;15.30;;
73428;SDS011;61643;49.564;17.412;2023-05-21T01:33:17;26.80;;;15.75;;
73428;SDS011;61643;49.564;17.412;2023-05-21T01:35:56;27.33;;;15.30;;
73428;SDS011;61643;49.564;17.412;2023-05-21T01:41:25;28.05;;;15.82;;
73428;SDS011;61643;49.564;17.412;2023-05-21T01:43:53;27.25;;;16.25;;
73428;SDS011;61643;49.564;17.412;2023-05-21T01:48:49;24.42;;;14.30;;
73428;SDS011;61643;49.564;17.412;2023-05-21T01:51:17;25.15;;;13.75;;
73428;SDS011;61643;49.564;17.412;2023-05-21T01:53:45;25.65;;;14.18;;
73428;SDS011;61643;49.564;17.412;2023-05-21T01:56:10;21.67;;;12.95;;
73428;SDS011;61643;49.564;17.412;2023-05-21T01:58:37;21.73;;;13.40;;
73428;SDS011;61643;49.564;17.412;2023-05-21T02:01:03;20.17;;;12.90;;
73428;SDS011;61643;49.564;17.412;2023-05-21T02:03:29;23.90;;;13.63;;
73428;SDS011;61643;49.564;17.412;2023-05-21T02:05:55;22.75;;;14.07;;
73428;SDS011;61643;49.564;17.412;2023-05-21T02:08:21;24.15;;;14.60;;
73428;SDS011;61643;49.564;17.412;2023-05-21T02:10:48;22.90;;;13.38;;
73428;SDS011;61643;49.564;17.412;2023-05-21T02:13:14;22.55;;;12.98;;
73428;SDS011;61643;49.564;17.412;2023-05-21T02:15:45;21.90;;;13.50;;
73428;SDS011;61643;49.564;17.412;2023-05-21T02:18:11;22.27;;;12.77;;
73428;SDS011;61643;49.564;17.412;2023-05-21T02:20:41;20.23;;;12.73;;
73428;SDS011;61643;49.564;17.412;2023-05-21T02:23:08;21.05;;;13.55;;
73428;SDS011;61643;49.564;17.412;2023-05-21T02:25:34;22.35;;;13.57;;
73428;SDS011;61643;49.564;17.412;2023-05-21T02:28:00;26.15;;;13.30;;
73428;SDS011;61643;49.564;17.412;2023-05-21T02:30:27;21.52;;;12.90;;
73428;SDS011;61643;49.564;17.412;2023-05-21T02:32:53;20.33;;;12.27;;
73428;SDS011;61643;49.564;17.412;2023-05-21T02:35:19;24.13;;;14.52;;
73428;SDS011;61643;49.564;17.412;2023-05-21T02:37:45;27.30;;;15.60;;
73428;SDS011;61643;49.564;17.412;2023-05-21T02:40:11;25.90;;;14.48;;
73428;SDS011;61643;49.564;17.412;2023-05-21T02:42:38;24.00;;;14.25;;
73428;SDS011;61643;49.564;17.412;2023-05-21T02:45:08;26.25;;;14.43;;
73428;SDS011;61643;49.564;17.412;2023-05-21T02:47:36;23.70;;;13.93;;
73428;SDS011;61643;49.564;17.412;2023-05-21T02:50:04;24.52;;;14.15;;
73428;SDS011;61643;49.564;17.412;2023-05-21T02:52:31;23.33;;;13.88;;
73428;SDS011;61643;49.564;17.412;2023-05-21T02:54:57;26.77;;;14.75;;
73428;SDS011;61643;49.564;17.412;2023-05-21T02:57:23;26.67;;;13.90;;
73428;SDS011;61643;49.564;17.412;2023-05-21T02:59:49;24.25;;;13.75;;
73428;SDS011;61643;49.564;17.412;2023-05-21T03:02:15;24.55;;;13.23;;
73428;SDS011;61643;49.564;17.412;2023-05-21T03:04:41;26.00;;;13.98;;
73428;SDS011;61643;49.564;17.412;2023-05-21T03:07:14;21.80;;;13.40;;
73428;SDS011;61643;49.564;17.412;2023-05-21T03:09:42;26.02;;;14.20;;
73428;SDS011;61643;49.564;17.412;2023-05-21T03:12:08;24.30;;;14.38;;
73428;SDS011;61643;49.564;17.412;2023-05-21T03:14:34;25.35;;;14.30;;
73428;SDS011;61643;49.564;17.412;2023-05-21T03:17:01;22.38;;;13.57;;
73428;SDS011;61643;49.564;17.412;2023-05-21T03:19:31;28.75;;;14.75;;
73428;SDS011;61643;49.564;17.412;2023-05-21T03:22:00;22.83;;;12.30;;
73428;SDS011;61643;49.564;17.412;2023-05-21T03:24:27;22.38;;;13.18;;
73428;SDS011;61643;49.564;17.412;2023-05-21T03:26:55;23.77;;;13.55;;
73428;SDS011;61643;49.564;17.412;2023-05-21T03:29:21;26.80;;;14.63;;
73428;SDS011;61643;49.564;17.412;2023-05-21T03:31:47;24.10;;;14.02;;
73428;SDS011;61643;49.564;17.412;2023-05-21T03:34:13;25.33;;;14.30;;
73428;SDS011;61643;49.564;17.412;2023-05-21T03:36:40;23.63;;;13.25;;
73428;SDS011;61643;49.564;17.412;2023-05-21T03:39:06;22.75;;;13.27;;
73428;SDS011;61643;49.564;17.412;2023-05-21T03:41:32;24.25;;;14.05;;
73428;SDS011;61643;49.564;17.412;2023-05-21T03:43:58;25.13;;;13.50;;
73428;SDS011;61643;49.564;17.412;2023-05-21T03:46:24;27.38;;;15.27;;
73428;SDS011;61643;49.564;17.412;2023-05-21T03:48:51;26.58;;;14.57;;
73428;SDS011;61643;49.564;17.412;2023-05-21T03:51:17;23.27;;;13.82;;
73428;SDS011;61643;49.564;17.412;2023-05-21T03:53:44;24.73;;;14.05;;
73428;SDS011;61643;49.564;17.412;2023-05-21T03:56:11;22.55;;;13.50;;
73428;SDS011;61643;49.564;17.412;2023-05-21T03:58:37;22.30;;;14.25;;
73428;SDS011;61643;49.564;17.412;2023-05-21T04:01:03;24.95;;;14.13;;
73428;SDS011;61643;49.564;17.412;2023-05-21T04:03:29;24.13;;;12.82;;
73428;SDS011;61643;49.564;17.412;2023-05-21T04:05:57;23.25;;;13.98;;
73428;SDS011;61643;49.564;17.412;2023-05-21T04:08:23;23.17;;;13.77;;
73428;SDS011;61643;49.564;17.412;2023-05-21T04:10:49;24.05;;;14.25;;
73428;SDS011;61643;49.564;17.412;2023-05-21T04:13:15;25.52;;;14.65;;
73428;SDS011;61643;49.564;17.412;2023-05-21T04:15:41;26.30;;;14.77;;
73428;SDS011;61643;49.564;17.412;2023-05-21T04:18:09;27.08;;;15.18;;
73428;SDS011;61643;49.564;17.412;2023-05-21T04:20:35;23.02;;;13.70;;
73428;SDS011;61643;49.564;17.412;2023-05-21T04:23:01;26.10;;;13.75;;
73428;SDS011;61643;49.564;17.412;2023-05-21T04:25:27;19.98;;;12.70;;
73428;SDS011;61643;49.564;17.412;2023-05-21T04:27:53;24.38;;;15.18;;
73428;SDS011;61643;49.564;17.412;2023-05-21T04:30:19;25.55;;;15.00;;
73428;SDS011;61643;49.564;17.412;2023-05-21T04:32:46;27.67;;;15.80;;
73428;SDS011;61643;49.564;17.412;2023-05-21T04:35:12;25.35;;;15.93;;
73428;SDS011;61643;49.564;17.412;2023-05-21T04:37:39;27.52;;;15.68;;
73428;SDS011;61643;49.564;17.412;2023-05-21T04:40:11;32.95;;;18.27;;
73428;SDS011;61643;49.564;17.412;2023-05-21T04:42:45;25.25;;;15.13;;
73428;SDS011;61643;49.564;17.412;2023-05-21T04:45:12;27.30;;;16.42;;
73428;SDS011;61643;49.564;17.412;2023-05-21T04:47:39;31.58;;;17.35;;
73428;SDS011;61643;49.564;17.412;2023-05-21T04:50:05;32.65;;;19.40;;
73428;SDS011;61643;49.564;17.412;2023-05-21T04:52:31;32.80;;;18.40;;
73428;SDS011;61643;49.564;17.412;2023-05-21T04:54:59;30.85;;;18.20;;
73428;SDS011;61643;49.564;17.412;2023-05-21T04:57:26;35.78;;;19.38;;
73428;SDS011;61643;49.564;17.412;2023-05-21T04:59:52;30.17;;;17.65;;
73428;SDS011;61643;49.564;17.412;2023-05-21T05:02:18;34.45;;;18.98;;
73428;SDS011;61643;49.564;17.412;2023-05-21T05:04:44;32.55;;;18.40;;
73428;SDS011;61643;49.564;17.412;2023-05-21T05:07:11;32.03;;;18.75;;
73428;SDS011;61643;49.564;17.412;2023-05-21T05:09:37;27.05;;;17.25;;
73428;SDS011;61643;49.564;17.412;2023-05-21T05:12:03;32.25;;;17.52;;
73428;SDS011;61643;49.564;17.412;2023-05-21T05:14:29;32.58;;;17.63;;
73428;SDS011;61643;49.564;17.412;2023-05-21T05:16:55;31.73;;;17.85;;
73428;SDS011;61643;49.564;17.412;2023-05-21T05:19:25;30.95;;;17.33;;
73428;SDS011;61643;49.564;17.412;2023-05-21T05:21:51;30.48;;;18.52;;
73428;SDS011;61643;49.564;17.412;2023-05-21T05:24:17;29.67;;;18.15;;
73428;SDS011;61643;49.564;17.412;2023-05-21T05:26:43;31.70;;;17.65;;
73428;SDS011;61643;49.564;17.412;2023-05-21T05:29:09;30.77;;;17.70;;
73428;SDS011;61643;49.564;17.412;2023-05-21T05:31:35;30.02;;;17.85;;
73428;SDS011;61643;49.564;17.412;2023-05-21T05:34:01;29.30;;;17.08;;
73428;SDS011;61643;49.564;17.412;2023-05-21T05:36:27;28.67;;;16.77;;
73428;SDS011;61643;49.564;17.412;2023-05-21T05:38:53;27.98;;;17.35;;
73428;SDS011;61643;49.564;17.412;2023-05-21T05:41:19;25.60;;;16.52;;
73428;SDS011;61643;49.564;17.412;2023-05-21T05:43:45;25.85;;;15.45;;
73428;SDS011;61643;49.564;17.412;2023-05-21T05:46:11;28.38;;;16.98;;
73428;SDS011;61643;49.564;17.412;2023-05-21T05:48:37;28.40;;;16.80;;
73428;SDS011;61643;49.564;17.412;2023-05-21T05:51:03;26.27;;;16.58;;
73428;SDS011;61643;49.564;17.412;2023-05-21T05:53:29;29.15;;;17.75;;
73428;SDS011;61643;49.564;17.412;2023-05-21T05:55:56;26.77;;;16.30;;
73428;SDS011;61643;49.564;17.412;2023-05-21T05:58:22;24.80;;;15.30;;
73428;SDS011;61643;49.564;17.412;2023-05-21T06:00:48;26.45;;;15.73;;
73428;SDS011;61643;49.564;17.412;2023-05-21T06:03:14;25.27;;;16.15;;
73428;SDS011;61643;49.564;17.412;2023-05-21T06:05:40;25.42;;;16.75;;
73428;SDS011;61643;49.564;17.412;2023-05-21T06:08:06;24.67;;;15.98;;
73428;SDS011;61643;49.564;17.412;2023-05-21T06:10:32;28.13;;;16.90;;
73428;SDS011;61643;49.564;17.412;2023-05-21T06:12:58;29.17;;;17.45;;
73428;SDS011;61643;49.564;17.412;2023-05-21T06:15:24;29.00;;;16.75;;
73428;SDS011;61643;49.564;17.412;2023-05-21T06:17:51;26.42;;;17.17;;
73428;SDS011;61643;49.564;17.412;2023-05-21T06:20:17;27.90;;;17.33;;
73428;SDS011;61643;49.564;17.412;2023-05-21T06:22:43;27.08;;;16.60;;
73428;SDS011;61643;49.564;17.412;2023-05-21T06:25:09;25.33;;;16.25;;
73428;SDS011;61643;49.564;17.412;2023-05-21T06:27:36;25.88;;;16.13;;
73428;SDS011;61643;49.564;17.412;2023-05-21T06:30:02;26.35;;;16.60;;
73428;SDS011;61643;49.564;17.412;2023-05-21T06:32:29;26.13;;;16.25;;
73428;SDS011;61643;49.564;17.412;2023-05-21T06:34:55;25.83;;;16.13;;
73428;SDS011;61643;49.564;17.412;2023-05-21T06:37:21;28.05;;;16.42;;
73428;SDS011;61643;49.564;17.412;2023-05-21T06:39:47;23.95;;;15.45;;
73428;SDS011;61643;49.564;17.412;2023-05-21T06:42:13;23.33;;;15.13;;
73428;SDS011;61643;49.564;17.412;2023-05-21T06:44:39;22.45;;;13.75;;
73428;SDS011;61643;49.564;17.412;2023-05-21T06:47:05;24.33;;;15.80;;
73428;SDS011;61643;49.564;17.412;2023-05-21T06:49:31;30.88;;;17.00;;
73428;SDS011;61643;49.564;17.412;2023-05-21T06:51:59;26.55;;;16.20;;
73428;SDS011;61643;49.564;17.412;2023-05-21T06:54:26;28.50;;;17.58;;
73428;SDS011;61643;49.564;17.412;2023-05-21T06:56:52;26.95;;;17.15;;
73428;SDS011;61643;49.564;17.412;2023-05-21T06:59:18;27.15;;;17.15;;
73428;SDS011;61643;49.564;17.412;2023-05-21T07:01:44;26.25;;;16.85;;
73428;SDS011;61643;49.564;17.412;2023-05-21T07:04:10;27.42;;;17.45;;
73428;SDS011;61643;49.564;17.412;2023-05-21T07:06:36;27.08;;;16.88;;
73428;SDS011;61643;49.564;17.412;2023-05-21T07:09:03;26.40;;;17.20;;
73428;SDS011;61643;49.564;17.412;2023-05-21T07:11:31;28.58;;;18.25;;
73428;SDS011;61643;49.564;17.412;2023-05-21T07:13:57;27.45;;;16.77;;
73428;SDS011;61643;49.564;17.412;2023-05-21T07:16:26;28.02;;;17.92;;
73428;SDS011;61643;49.564;17.412;2023-05-21T07:18:52;25.20;;;16.85;;
73428;SDS011;61643;49.564;17.412;2023-05-21T07:21:18;28.73;;;18.13;;
73428;SDS011;61643;49.564;17.412;2023-05-21T07:23:45;26.08;;;16.20;;
73428;SDS011;61643;49.564;17.412;2023-05-21T07:26:11;29.70;;;16.42;;
73428;SDS011;61643;49.564;17.412;2023-05-21T07:28:37;32.03;;;17.60;;
73428;SDS011;61643;49.564;17.412;2023-05-21T07:31:03;23.92;;;15.70;;
73428;SDS011;61643;49.564;17.412;2023-05-21T07:33:29;26.15;;;16.02;;
73428;SDS011;61643;49.564;17.412;2023-05-21T07:35:55;26.17;;;15.90;;
73428;SDS011;61643;49.564;17.412;2023-05-21T07:38:21;24.88;;;16.30;;
73428;SDS011;61643;49.564;17.412;2023-05-21T07:40:47;25.02;;;16.30;;
73428;SDS011;61643;49.564;17.412;2023-05-21T07:43:13;25.25;;;15.95;;
73428;SDS011;61643;49.564;17.412;2023-05-21T07:45:39;25.63;;;16.15;;
73428;SDS011;61643;49.564;17.412;2023-05-21T07:48:05;25.48;;;15.82;;
73428;SDS011;61643;49.564;17.412;2023-05-21T07:50:31;23.77;;;15.07;;
73428;SDS011;61643;49.564;17.412;2023-05-21T07:52:57;24.15;;;15.73;;
73428;SDS011;61643;49.564;17.412;2023-05-21T07:55:23;22.52;;;14.98;;
73428;SDS011;61643;49.564;17.412;2023-05-21T07:57:50;23.05;;;14.55;;
73428;SDS011;61643;49.564;17.412;2023-05-21T08:00:21;23.33;;;14.10;;
73428;SDS011;61643;49.564;17.412;2023-05-21T08:02:48;20.48;;;13.63;;
73428;SDS011;61643;49.564;17.412;2023-05-21T08:05:14;22.10;;;14.25;;
73428;SDS011;61643;49.564;17.412;2023-05-21T08:07:43;22.15;;;13.98;;
73428;SDS011;61643;49.564;17.412;2023-05-21T08:10:09;18.70;;;13.23;;
73428;SDS011;61643;49.564;17.412;2023-05-21T08:12:35;20.30;;;13.35;;
73428;SDS011;61643;49.564;17.412;2023-05-21T08:15:01;20.05;;;13.23;;
73428;SDS011;61643;49.564;17.412;2023-05-21T08:17:27;20.33;;;12.27;;
73428;SDS011;61643;49.564;17.412;2023-05-21T08:19:53;20.48;;;12.02;;
73428;SDS011;61643;49.564;17.412;2023-05-21T08:22:19;18.27;;;12.63;;
73428;SDS011;61643;49.564;17.412;2023-05-21T08:24:45;20.67;;;13.40;;
73428;SDS011;61643;49.564;17.412;2023-05-21T08:27:12;19.33;;;13.45;;
73428;SDS011;61643;49.564;17.412;2023-05-21T08:32:06;19.38;;;12.88;;
73428;SDS011;61643;49.564;17.412;2023-05-21T08:34:34;20.95;;;13.40;;
73428;SDS011;61643;49.564;17.412;2023-05-21T08:37:00;19.23;;;13.32;;
73428;SDS011;61643;49.564;17.412;2023-05-21T08:39:26;20.88;;;13.23;;
73428;SDS011;61643;49.564;17.412;2023-05-21T08:41:53;20.95;;;12.45;;
73428;SDS011;61643;49.564;17.412;2023-05-21T08:44:26;15.68;;;12.00;;
73428;SDS011;61643;49.564;17.412;2023-05-21T08:46:57;16.13;;;11.80;;
73428;SDS011;61643;49.564;17.412;2023-05-21T08:49:25;18.85;;;12.70;;
73428;SDS011;61643;49.564;17.412;2023-05-21T08:51:59;17.27;;;12.25;;
73428;SDS011;61643;49.564;17.412;2023-05-21T08:54:25;17.70;;;13.00;;
73428;SDS011;61643;49.564;17.412;2023-05-21T08:56:52;16.30;;;10.85;;
73428;SDS011;61643;49.564;17.412;2023-05-21T08:59:21;18.23;;;11.05;;
73428;SDS011;61643;49.564;17.412;2023-05-21T09:01:47;16.63;;;11.23;;
73428;SDS011;61643;49.564;17.412;2023-05-21T09:04:14;16.10;;;10.60;;
73428;SDS011;61643;49.564;17.412;2023-05-21T09:09:13;11.93;;;8.40;;
73428;SDS011;61643;49.564;17.412;2023-05-21T09:12:06;11.80;;;8.35;;
73428;SDS011;61643;49.564;17.412;2023-05-21T09:14:33;10.63;;;8.80;;
73428;SDS011;61643;49.564;17.412;2023-05-21T09:17:00;13.93;;;7.97;;
73428;SDS011;61643;49.564;17.412;2023-05-21T09:19:26;12.82;;;8.23;;
73428;SDS011;61643;49.564;17.412;2023-05-21T09:21:57;14.38;;;8.85;;
73428;SDS011;61643;49.564;17.412;2023-05-21T09:24:26;11.30;;;7.28;;
73428;SDS011;61643;49.564;17.412;2023-05-21T09:26:56;10.60;;;6.55;;
73428;SDS011;61643;49.564;17.412;2023-05-21T09:29:22;8.82;;;6.55;;
73428;SDS011;61643;49.564;17.412;2023-05-21T09:34:16;9.07;;;6.22;;
73428;SDS011;61643;49.564;17.412;2023-05-21T09:36:42;8.15;;;5.90;;
73428;SDS011;61643;49.564;17.412;2023-05-21T09:39:08;9.77;;;6.35;;
73428;SDS011;61643;49.564;17.412;2023-05-21T09:41:36;9.93;;;6.65;;
73428;SDS011;61643;49.564;17.412;2023-05-21T09:44:02;9.82;;;6.22;;
73428;SDS011;61643;49.564;17.412;2023-05-21T09:46:38;12.50;;;6.35;;
73428;SDS011;61643;49.564;17.412;2023-05-21T09:49:05;8.15;;;6.00;;
73428;SDS011;61643;49.564;17.412;2023-05-21T09:51:31;10.18;;;6.70;;
73428;SDS011;61643;49.564;17.412;2023-05-21T09:53:58;7.05;;;5.03;;
73428;SDS011;61643;49.564;17.412;2023-05-21T09:58:57;8.82;;;6.10;;
73428;SDS011;61643;49.564;17.412;2023-05-21T10:01:26;11.25;;;6.22;;
73428;SDS011;61643;49.564;17.412;2023-05-21T10:03:53;8.48;;;6.10;;
73428;SDS011;61643;49.564;17.412;2023-05-21T10:06:25;9.20;;;5.90;;
73428;SDS011;61643;49.564;17.412;2023-05-21T10:08:56;7.43;;;6.07;;
73428;SDS011;61643;49.564;17.412;2023-05-21T10:11:26;10.23;;;6.15;;
73428;SDS011;61643;49.564;17.412;2023-05-21T10:14:15;8.05;;;6.25;;
73428;SDS011;61643;49.564;17.412;2023-05-21T10:16:46;6.80;;;5.70;;
73428;SDS011;61643;49.564;17.412;2023-05-21T10:19:13;9.00;;;5.70;;
73428;SDS011;61643;49.564;17.412;2023-05-21T10:21:40;10.65;;;5.90;;
73428;SDS011;61643;49.564;17.412;2023-05-21T10:24:07;9.18;;;5.68;;
73428;SDS011;61643;49.564;17.412;2023-05-21T10:26:34;8.65;;;5.35;;
73428;SDS011;61643;49.564;17.412;2023-05-21T10:29:01;6.90;;;5.13;;
73428;SDS011;61643;49.564;17.412;2023-05-21T10:31:27;9.27;;;5.80;;
73428;SDS011;61643;49.564;17.412;2023-05-21T10:33:54;8.85;;;5.50;;
73428;SDS011;61643;49.564;17.412;2023-05-21T10:36:20;6.15;;;5.20;;
73428;SDS011;61643;49.564;17.412;2023-05-21T10:38:49;7.70;;;4.93;;
73428;SDS011;61643;49.564;17.412;2023-05-21T10:41:16;6.60;;;4.53;;
73428;SDS011;61643;49.564;17.412;2023-05-21T11:01:05;7.25;;;4.72;;
73428;SDS011;61643;49.564;17.412;2023-05-21T11:03:32;6.78;;;4.32;;
73428;SDS011;61643;49.564;17.412;2023-05-21T11:06:00;8.20;;;4.63;;
73428;SDS011;61643;49.564;17.412;2023-05-21T11:08:28;7.88;;;5.25;;
73428;SDS011;61643;49.564;17.412;2023-05-21T11:11:03;8.98;;;5.13;;
73428;SDS011;61643;49.564;17.412;2023-05-21T11:13:45;5.85;;;5.05;;
73428;SDS011;61643;49.564;17.412;2023-05-21T11:16:16;6.68;;;5.10;;
73428;SDS011;61643;49.564;17.412;2023-05-21T11:21:14;7.43;;;5.07;;
73428;SDS011;61643;49.564;17.412;2023-05-21T11:26:24;8.32;;;5.72;;
73428;SDS011;61643;49.564;17.412;2023-05-21T11:31:29;9.13;;;6.43;;
73428;SDS011;61643;49.564;17.412;2023-05-21T11:34:22;6.20;;;5.38;;
73428;SDS011;61643;49.564;17.412;2023-05-21T11:39:55;7.60;;;5.28;;
73428;SDS011;61643;49.564;17.412;2023-05-21T11:42:40;7.80;;;5.88;;
73428;SDS011;61643;49.564;17.412;2023-05-21T11:45:08;6.85;;;5.75;;
73428;SDS011;61643;49.564;17.412;2023-05-21T11:47:35;7.70;;;5.93;;
73428;SDS011;61643;49.564;17.412;2023-05-21T11:50:01;12.80;;;6.32;;
73428;SDS011;61643;49.564;17.412;2023-05-21T11:52:29;7.95;;;5.65;;
73428;SDS011;61643;49.564;17.412;2023-05-21T11:54:57;7.25;;;5.63;;
73428;SDS011;61643;49.564;17.412;2023-05-21T11:57:27;8.13;;;5.38;;
73428;SDS011;61643;49.564;17.412;2023-05-21T11:59:57;8.52;;;5.50;;
73428;SDS011;61643;49.564;17.412;2023-05-21T12:04:52;5.88;;;4.85;;
73428;SDS011;61643;49.564;17.412;2023-05-21T12:07:18;8.05;;;5.38;;
73428;SDS011;61643;49.564;17.412;2023-05-21T12:09:46;9.50;;;5.88;;
73428;SDS011;61643;49.564;17.412;2023-05-21T12:12:13;7.20;;;5.63;;
73428;SDS011;61643;49.564;17.412;2023-05-21T12:14:46;7.70;;;5.70;;
73428;SDS011;61643;49.564;17.412;2023-05-21T12:17:23;9.80;;;5.10;;
73428;SDS011;61643;49.564;17.412;2023-05-21T12:19:53;7.68;;;5.70;;
73428;SDS011;61643;49.564;17.412;2023-05-21T12:22:24;7.82;;;5.40;;
73428;SDS011;61643;49.564;17.412;2023-05-21T12:24:52;11.43;;;5.38;;
73428;SDS011;61643;49.564;17.412;2023-05-21T12:27:19;6.85;;;4.88;;
73428;SDS011;61643;49.564;17.412;2023-05-21T12:29:48;8.88;;;5.95;;
73428;SDS011;61643;49.564;17.412;2023-05-21T12:32:16;9.50;;;5.30;;
73428;SDS011;61643;49.564;17.412;2023-05-21T12:34:47;7.47;;;5.55;;
73428;SDS011;61643;49.564;17.412;2023-05-21T12:37:21;6.18;;;5.07;;
73428;SDS011;61643;49.564;17.412;2023-05-21T12:39:49;8.65;;;5.93;;
73428;SDS011;61643;49.564;17.412;2023-05-21T12:42:23;6.80;;;5.72;;
73428;SDS011;61643;49.564;17.412;2023-05-21T12:44:55;7.97;;;6.20;;
73428;SDS011;61643;49.564;17.412;2023-05-21T12:47:25;10.85;;;6.55;;
73428;SDS011;61643;49.564;17.412;2023-05-21T12:50:01;8.60;;;5.88;;
73428;SDS011;61643;49.564;17.412;2023-05-21T12:52:29;11.30;;;5.90;;
73428;SDS011;61643;49.564;17.412;2023-05-21T12:54:57;8.02;;;6.43;;
73428;SDS011;61643;49.564;17.412;2023-05-21T12:57:25;9.18;;;6.07;;
73428;SDS011;61643;49.564;17.412;2023-05-21T12:59:56;8.70;;;5.70;;
73428;SDS011;61643;49.564;17.412;2023-05-21T13:02:24;8.88;;;6.00;;
73428;SDS011;61643;49.564;17.412;2023-05-21T13:04:53;9.35;;;6.75;;
73428;SDS011;61643;49.564;17.412;2023-05-21T13:07:30;8.23;;;6.13;;
73428;SDS011;61643;49.564;17.412;2023-05-21T13:12:26;9.52;;;5.60;;
73428;SDS011;61643;49.564;17.412;2023-05-21T13:14:55;7.78;;;5.53;;
73428;SDS011;61643;49.564;17.412;2023-05-21T13:17:22;8.27;;;5.65;;
73428;SDS011;61643;49.564;17.412;2023-05-21T13:22:35;7.68;;;5.60;;
73428;SDS011;61643;49.564;17.412;2023-05-21T13:25:07;8.07;;;5.78;;
73428;SDS011;61643;49.564;17.412;2023-05-21T13:27:37;8.35;;;5.28;;
73428;SDS011;61643;49.564;17.412;2023-05-21T13:30:04;7.63;;;5.60;;
73428;SDS011;61643;49.564;17.412;2023-05-21T13:32:31;9.07;;;5.72;;
73428;SDS011;61643;49.564;17.412;2023-05-21T13:34:57;8.75;;;5.47;;
73428;SDS011;61643;49.564;17.412;2023-05-21T13:37:23;7.13;;;5.45;;
73428;SDS011;61643;49.564;17.412;2023-05-21T13:39:49;8.65;;;5.43;;
73428;SDS011;61643;49.564;17.412;2023-05-21T13:42:15;7.13;;;5.95;;
73428;SDS011;61643;49.564;17.412;2023-05-21T13:44:41;6.82;;;5.50;;
73428;SDS011;61643;49.564;17.412;2023-05-21T13:47:07;6.97;;;5.65;;
73428;SDS011;61643;49.564;17.412;2023-05-21T13:49:35;8.45;;;5.57;;
73428;SDS011;61643;49.564;17.412;2023-05-21T13:52:01;7.85;;;5.43;;
73428;SDS011;61643;49.564;17.412;2023-05-21T13:54:28;8.80;;;5.75;;
73428;SDS011;61643;49.564;17.412;2023-05-21T13:56:54;6.88;;;5.35;;
73428;SDS011;61643;49.564;17.412;2023-05-21T13:59:20;6.60;;;4.93;;
73428;SDS011;61643;49.564;17.412;2023-05-21T14:01:46;7.15;;;5.43;;
73428;SDS011;61643;49.564;17.412;2023-05-21T14:06:41;6.43;;;4.22;;
73428;SDS011;61643;49.564;17.412;2023-05-21T14:09:07;7.38;;;4.60;;
73428;SDS011;61643;49.564;17.412;2023-05-21T14:11:33;7.70;;;4.50;;
73428;SDS011;61643;49.564;17.412;2023-05-21T14:13:59;6.97;;;4.60;;
73428;SDS011;61643;49.564;17.412;2023-05-21T14:16:25;7.30;;;4.82;;
73428;SDS011;61643;49.564;17.412;2023-05-21T14:18:52;5.82;;;4.72;;
73428;SDS011;61643;49.564;17.412;2023-05-21T14:21:18;7.50;;;4.53;;
73428;SDS011;61643;49.564;17.412;2023-05-21T14:23:46;7.93;;;4.32;;
73428;SDS011;61643;49.564;17.412;2023-05-21T14:26:15;6.82;;;4.47;;
73428;SDS011;61643;49.564;17.412;2023-05-21T14:28:42;5.53;;;4.55;;
73428;SDS011;61643;49.564;17.412;2023-05-21T14:31:09;7.28;;;4.70;;
73428;SDS011;61643;49.564;17.412;2023-05-21T14:33:35;7.35;;;3.70;;
73428;SDS011;61643;49.564;17.412;2023-05-21T14:36:03;5.68;;;4.30;;
73428;SDS011;61643;49.564;17.412;2023-05-21T14:38:29;7.15;;;3.72;;
73428;SDS011;61643;49.564;17.412;2023-05-21T14:40:55;4.68;;;3.70;;
73428;SDS011;61643;49.564;17.412;2023-05-21T14:43:21;4.63;;;3.33;;
73428;SDS011;61643;49.564;17.412;2023-05-21T14:45:48;5.05;;;3.78;;
73428;SDS011;61643;49.564;17.412;2023-05-21T14:48:15;6.50;;;4.10;;
73428;SDS011;61643;49.564;17.412;2023-05-21T14:50:43;6.18;;;3.80;;
73428;SDS011;61643;49.564;17.412;2023-05-21T14:53:09;5.53;;;3.58;;
73428;SDS011;61643;49.564;17.412;2023-05-21T14:55:36;6.32;;;3.47;;
73428;SDS011;61643;49.564;17.412;2023-05-21T14:58:05;9.65;;;3.70;;
73428;SDS011;61643;49.564;17.412;2023-05-21T15:00:32;4.30;;;3.45;;
73428;SDS011;61643;49.564;17.412;2023-05-21T15:05:26;4.45;;;3.17;;
73428;SDS011;61643;49.564;17.412;2023-05-21T15:07:56;6.70;;;3.78;;
73428;SDS011;61643;49.564;17.412;2023-05-21T15:10:23;6.28;;;3.55;;
73428;SDS011;61643;49.564;17.412;2023-05-21T15:12:50;7.50;;;3.25;;
73428;SDS011;61643;49.564;17.412;2023-05-21T15:15:17;5.40;;;3.25;;
73428;SDS011;61643;49.564;17.412;2023-05-21T15:17:47;7.32;;;3.47;;
73428;SDS011;61643;49.564;17.412;2023-05-21T15:20:13;5.45;;;3.80;;